Flight Track Log - Related Links

Times and Time Zones

All times are in EDT time to prevent confusion due to time zone crossing. See the CPT7773 flight status page for this flight to view local times or setup timezone preferences in your user account.

Time Position Orientation Groundspeed Altitude Reporting Facility
EDT Latitude Longitude Course Direction KTS MPH feet Rate Location/Type
Thu 08:11:00 PM 44.4009 -108.7619 120° Southeast  Level FlightAware Approximate
Thu 08:12:00 PM 44.3791 -108.7094 120° Southeast  Level FlightAware Approximate
Thu 08:13:00 PM 44.3573 -108.6570 120° Southeast  Level FlightAware Approximate
Thu 08:14:00 PM 44.3355 -108.6046 120° Southeast  Level FlightAware Approximate
Thu 08:15:00 PM 44.3137 -108.5522 120° Southeast  Level FlightAware Approximate
Thu 08:16:00 PM 44.2918 -108.4998 120° Southeast  Level FlightAware Approximate
Thu 08:17:00 PM 44.2699 -108.4475 120° Southeast  Level FlightAware Approximate
Thu 08:18:00 PM 44.2473 -108.3960 133° Southeast  Level FlightAware Approximate
Thu 08:19:00 PM 44.2178 -108.3516 133° Southeast  Level FlightAware Approximate
Thu 08:20:00 PM 44.1883 -108.3073 133° Southeast  Level FlightAware Approximate
Thu 08:21:00 PM 44.1588 -108.2630 133° Southeast  Level FlightAware Approximate
Thu 08:22:00 PM 44.1292 -108.2188 133° Southeast  Level FlightAware Approximate
Thu 08:23:00 PM 44.0997 -108.1745 133° Southeast  Level FlightAware Approximate
Thu 08:24:00 PM 44.0703 -108.1302 133° Southeast  Level FlightAware Approximate
Thu 08:25:00 PM 44.0408 -108.0859 133° Southeast  Level FlightAware Approximate
Thu 08:26:00 PM 44.0113 -108.0417 133° Southeast  Level FlightAware Approximate
Thu 08:27:00 PM 43.9818 -107.9975 133° Southeast  Level FlightAware Approximate
Thu 08:28:00 PM 43.9523 -107.9534 133° Southeast  Level FlightAware Approximate
Thu 08:29:00 PM 43.9300 -107.9018 120° Southeast  Level FlightAware Approximate
Thu 08:29:52 PM 43.4675 -106.9856 128° Southeast 163 188 10,800  Level Denver Center
Thu 08:30:00 PM 43.9083 -107.8497 120° Southeast  Level FlightAware Approximate
Thu 08:30:54 PM 43.4389 -106.9306 126° Southeast 159 183 10,800  Level Denver Center
Thu 08:31:00 PM 43.8865 -107.7976 120° Southeast  Level FlightAware Approximate
Thu 08:31:57 PM 43.4133 -106.8839 127° Southeast 159 183 10,800  Level Denver Center
Thu 08:32:00 PM 43.8644 -107.7459 128° Southeast  Level FlightAware Approximate
Thu 08:32:59 PM 43.3897 -106.8386 126° Southeast 156 180 10,900  Level Denver Center
Thu 08:33:00 PM 43.8377 -107.6985 128° Southeast  Level FlightAware Approximate
Thu 08:34:00 PM 43.8110 -107.6511 128° Southeast  Level FlightAware Approximate
Thu 08:34:01 PM 43.3614 -106.7822 125° Southeast 158 182 10,800  Level Denver Center
Thu 08:35:00 PM 43.7843 -107.6037 128° Southeast  Level FlightAware Approximate
Thu 08:35:03 PM 43.3336 -106.7331 128° Southeast 165 190 10,900  Level Denver Center
Thu 08:36:18 PM 43.2842 -106.6911 148° Southeast 167 192 10,400 -397 Descending Denver Center
Thu 08:37:19 PM 43.2328 -106.6633 159° South 175 201 10,000 -390 Descending Denver Center
Thu 08:38:21 PM 43.1914 -106.6367 155° Southeast 175 201 9,600 -532 Descending Denver Center
Thu 08:39:23 PM 43.1406 -106.6061 156° South 176 203 8,900 -677 Descending Denver Center
Thu 08:40:25 PM 43.0950 -106.5783 156° South 180 207 8,200 -629 Descending Denver Center
Thu 08:41:27 PM 43.0503 -106.5486 154° Southeast 185 213 7,600 -419 Descending Denver Center
Thu 08:43:31 PM 42.9700 -106.4636 157° South 179 206 6,900 -339 Descending Denver Center
Thu 08:44:00 PM 42.9760 -106.5046 157° South  Level Estimated
Thu 08:47:00 PM 42.9080 -106.4644 216° Southwest  Level Estimated
Thu 08:54:00 PM 42.9080 -106.4644 216° Southwest  Level Estimated

Login

Don't have an account? Register now (free) for customized features, flight alerts, and more!